sensor_id;sensor_type;location;lat;lon;timestamp;P1;durP1;ratioP1;P2;durP2;ratioP2
22907;SDS011;11620;50.050;8.690;2023-07-20T00:01:01;0.30;;;0.30;;
22907;SDS011;11620;50.050;8.690;2023-07-20T00:03:47;0.30;;;0.30;;
22907;SDS011;11620;50.050;8.690;2023-07-20T00:06:40;0.25;;;0.25;;
22907;SDS011;11620;50.050;8.690;2023-07-20T00:09:27;0.50;;;0.50;;
22907;SDS011;11620;50.050;8.690;2023-07-20T00:12:13;0.40;;;0.40;;
22907;SDS011;11620;50.050;8.690;2023-07-20T00:15:00;0.40;;;0.40;;
22907;SDS011;11620;50.050;8.690;2023-07-20T00:17:46;0.20;;;0.20;;
22907;SDS011;11620;50.050;8.690;2023-07-20T00:20:32;0.30;;;0.30;;
22907;SDS011;11620;50.050;8.690;2023-07-20T00:23:19;0.30;;;0.30;;
22907;SDS011;11620;50.050;8.690;2023-07-20T00:26:08;0.30;;;0.30;;
22907;SDS011;11620;50.050;8.690;2023-07-20T00:28:54;0.40;;;0.40;;
22907;SDS011;11620;50.050;8.690;2023-07-20T00:31:41;0.40;;;0.40;;
22907;SDS011;11620;50.050;8.690;2023-07-20T00:34:29;0.30;;;0.30;;
22907;SDS011;11620;50.050;8.690;2023-07-20T00:37:15;0.40;;;0.40;;
22907;SDS011;11620;50.050;8.690;2023-07-20T00:40:01;0.40;;;0.40;;
22907;SDS011;11620;50.050;8.690;2023-07-20T00:42:50;0.38;;;0.38;;
22907;SDS011;11620;50.050;8.690;2023-07-20T00:45:37;0.32;;;0.32;;
22907;SDS011;11620;50.050;8.690;2023-07-20T00:48:24;0.40;;;0.40;;
22907;SDS011;11620;50.050;8.690;2023-07-20T00:51:10;0.40;;;0.40;;
22907;SDS011;11620;50.050;8.690;2023-07-20T00:53:58;0.43;;;0.43;;
22907;SDS011;11620;50.050;8.690;2023-07-20T00:56:44;0.40;;;0.40;;
22907;SDS011;11620;50.050;8.690;2023-07-20T00:59:31;0.32;;;0.32;;
22907;SDS011;11620;50.050;8.690;2023-07-20T01:02:18;0.40;;;0.40;;
22907;SDS011;11620;50.050;8.690;2023-07-20T01:05:04;0.32;;;0.32;;
22907;SDS011;11620;50.050;8.690;2023-07-20T01:07:57;0.40;;;0.40;;
22907;SDS011;11620;50.050;8.690;2023-07-20T01:10:54;0.40;;;0.40;;
22907;SDS011;11620;50.050;8.690;2023-07-20T01:13:45;0.40;;;0.40;;
22907;SDS011;11620;50.050;8.690;2023-07-20T01:16:32;0.30;;;0.30;;
22907;SDS011;11620;50.050;8.690;2023-07-20T01:19:19;0.30;;;0.30;;
22907;SDS011;11620;50.050;8.690;2023-07-20T01:22:20;0.50;;;0.50;;
22907;SDS011;11620;50.050;8.690;2023-07-20T01:34:08;0.40;;;0.40;;
22907;SDS011;11620;50.050;8.690;2023-07-20T01:36:57;0.30;;;0.30;;
22907;SDS011;11620;50.050;8.690;2023-07-20T01:39:45;0.50;;;0.50;;
22907;SDS011;11620;50.050;8.690;2023-07-20T01:42:31;0.50;;;0.50;;
22907;SDS011;11620;50.050;8.690;2023-07-20T01:45:18;0.40;;;0.40;;
22907;SDS011;11620;50.050;8.690;2023-07-20T01:48:04;0.35;;;0.35;;
22907;SDS011;11620;50.050;8.690;2023-07-20T01:50:50;0.40;;;0.40;;
22907;SDS011;11620;50.050;8.690;2023-07-20T01:53:37;0.50;;;0.50;;
22907;SDS011;11620;50.050;8.690;2023-07-20T01:56:26;0.40;;;0.40;;
22907;SDS011;11620;50.050;8.690;2023-07-20T01:59:12;0.40;;;0.40;;
22907;SDS011;11620;50.050;8.690;2023-07-20T02:01:59;0.30;;;0.30;;
22907;SDS011;11620;50.050;8.690;2023-07-20T02:04:45;0.47;;;0.47;;
22907;SDS011;11620;50.050;8.690;2023-07-20T02:07:32;0.40;;;0.40;;
22907;SDS011;11620;50.050;8.690;2023-07-20T02:10:18;0.40;;;0.40;;
22907;SDS011;11620;50.050;8.690;2023-07-20T02:13:04;0.20;;;0.20;;
22907;SDS011;11620;50.050;8.690;2023-07-20T02:15:51;0.30;;;0.30;;
22907;SDS011;11620;50.050;8.690;2023-07-20T02:18:37;0.32;;;0.32;;
22907;SDS011;11620;50.050;8.690;2023-07-20T02:21:23;0.35;;;0.35;;
22907;SDS011;11620;50.050;8.690;2023-07-20T02:24:11;0.35;;;0.35;;
22907;SDS011;11620;50.050;8.690;2023-07-20T02:26:58;0.30;;;0.30;;
22907;SDS011;11620;50.050;8.690;2023-07-20T02:29:45;0.50;;;0.50;;
22907;SDS011;11620;50.050;8.690;2023-07-20T02:32:31;0.45;;;0.45;;
22907;SDS011;11620;50.050;8.690;2023-07-20T02:35:17;0.40;;;0.40;;
22907;SDS011;11620;50.050;8.690;2023-07-20T02:38:04;0.30;;;0.30;;
22907;SDS011;11620;50.050;8.690;2023-07-20T02:40:50;0.40;;;0.40;;
22907;SDS011;11620;50.050;8.690;2023-07-20T02:43:37;0.40;;;0.40;;
22907;SDS011;11620;50.050;8.690;2023-07-20T02:46:23;0.40;;;0.40;;
22907;SDS011;11620;50.050;8.690;2023-07-20T02:49:10;0.40;;;0.40;;
22907;SDS011;11620;50.050;8.690;2023-07-20T02:51:56;0.45;;;0.45;;
22907;SDS011;11620;50.050;8.690;2023-07-20T02:54:42;0.30;;;0.30;;
22907;SDS011;11620;50.050;8.690;2023-07-20T02:57:28;0.40;;;0.40;;
22907;SDS011;11620;50.050;8.690;2023-07-20T03:00:15;0.40;;;0.40;;
22907;SDS011;11620;50.050;8.690;2023-07-20T03:03:02;0.38;;;0.38;;
22907;SDS011;11620;50.050;8.690;2023-07-20T03:05:48;0.40;;;0.40;;
22907;SDS011;11620;50.050;8.690;2023-07-20T03:08:40;0.40;;;0.40;;
22907;SDS011;11620;50.050;8.690;2023-07-20T03:11:31;0.40;;;0.40;;
22907;SDS011;11620;50.050;8.690;2023-07-20T03:14:18;0.30;;;0.30;;
22907;SDS011;11620;50.050;8.690;2023-07-20T03:17:05;0.30;;;0.30;;
22907;SDS011;11620;50.050;8.690;2023-07-20T03:19:51;0.45;;;0.45;;
22907;SDS011;11620;50.050;8.690;2023-07-20T03:22:38;0.30;;;0.30;;
22907;SDS011;11620;50.050;8.690;2023-07-20T03:25:26;0.40;;;0.40;;
22907;SDS011;11620;50.050;8.690;2023-07-20T03:28:13;0.30;;;0.30;;
22907;SDS011;11620;50.050;8.690;2023-07-20T03:30:59;0.40;;;0.40;;
22907;SDS011;11620;50.050;8.690;2023-07-20T03:33:46;0.38;;;0.38;;
22907;SDS011;11620;50.050;8.690;2023-07-20T03:36:32;0.40;;;0.40;;
22907;SDS011;11620;50.050;8.690;2023-07-20T03:39:18;0.30;;;0.30;;
22907;SDS011;11620;50.050;8.690;2023-07-20T03:42:05;0.40;;;0.40;;
22907;SDS011;11620;50.050;8.690;2023-07-20T03:44:52;0.20;;;0.20;;
22907;SDS011;11620;50.050;8.690;2023-07-20T03:47:38;0.47;;;0.47;;
22907;SDS011;11620;50.050;8.690;2023-07-20T03:50:24;0.40;;;0.40;;
22907;SDS011;11620;50.050;8.690;2023-07-20T03:53:11;0.50;;;0.50;;
22907;SDS011;11620;50.050;8.690;2023-07-20T03:55:58;0.30;;;0.30;;
22907;SDS011;11620;50.050;8.690;2023-07-20T03:58:44;0.38;;;0.38;;
22907;SDS011;11620;50.050;8.690;2023-07-20T04:01:30;0.40;;;0.40;;
22907;SDS011;11620;50.050;8.690;2023-07-20T04:04:22;0.30;;;0.30;;
22907;SDS011;11620;50.050;8.690;2023-07-20T04:07:08;0.40;;;0.40;;
22907;SDS011;11620;50.050;8.690;2023-07-20T04:09:55;0.40;;;0.40;;
22907;SDS011;11620;50.050;8.690;2023-07-20T04:12:42;0.40;;;0.40;;
22907;SDS011;11620;50.050;8.690;2023-07-20T04:15:29;0.40;;;0.40;;
22907;SDS011;11620;50.050;8.690;2023-07-20T04:18:16;0.50;;;0.50;;
22907;SDS011;11620;50.050;8.690;2023-07-20T04:21:02;0.40;;;0.40;;
22907;SDS011;11620;50.050;8.690;2023-07-20T04:23:48;0.47;;;0.47;;
22907;SDS011;11620;50.050;8.690;2023-07-20T04:26:35;0.30;;;0.30;;
22907;SDS011;11620;50.050;8.690;2023-07-20T04:29:22;0.40;;;0.40;;
22907;SDS011;11620;50.050;8.690;2023-07-20T04:32:09;0.40;;;0.40;;
22907;SDS011;11620;50.050;8.690;2023-07-20T04:34:55;0.50;;;0.50;;
22907;SDS011;11620;50.050;8.690;2023-07-20T04:37:41;0.40;;;0.40;;
22907;SDS011;11620;50.050;8.690;2023-07-20T04:40:31;0.30;;;0.30;;
22907;SDS011;11620;50.050;8.690;2023-07-20T04:43:18;0.50;;;0.50;;
22907;SDS011;11620;50.050;8.690;2023-07-20T04:46:04;0.40;;;0.40;;
22907;SDS011;11620;50.050;8.690;2023-07-20T04:48:50;0.47;;;0.47;;
22907;SDS011;11620;50.050;8.690;2023-07-20T04:51:37;0.50;;;0.50;;
22907;SDS011;11620;50.050;8.690;2023-07-20T04:54:23;0.40;;;0.40;;
22907;SDS011;11620;50.050;8.690;2023-07-20T04:57:10;0.40;;;0.40;;
22907;SDS011;11620;50.050;8.690;2023-07-20T04:59:58;0.45;;;0.45;;
22907;SDS011;11620;50.050;8.690;2023-07-20T05:02:45;0.50;;;0.50;;
22907;SDS011;11620;50.050;8.690;2023-07-20T05:05:33;0.50;;;0.50;;
22907;SDS011;11620;50.050;8.690;2023-07-20T05:08:19;0.40;;;0.40;;
22907;SDS011;11620;50.050;8.690;2023-07-20T05:11:07;0.60;;;0.60;;
22907;SDS011;11620;50.050;8.690;2023-07-20T05:13:54;0.60;;;0.60;;
22907;SDS011;11620;50.050;8.690;2023-07-20T05:16:40;0.60;;;0.60;;
22907;SDS011;11620;50.050;8.690;2023-07-20T05:19:26;0.40;;;0.40;;
22907;SDS011;11620;50.050;8.690;2023-07-20T05:22:13;0.50;;;0.50;;
22907;SDS011;11620;50.050;8.690;2023-07-20T05:25:00;0.50;;;0.50;;
22907;SDS011;11620;50.050;8.690;2023-07-20T05:27:46;0.50;;;0.50;;
22907;SDS011;11620;50.050;8.690;2023-07-20T05:30:32;0.40;;;0.40;;
22907;SDS011;11620;50.050;8.690;2023-07-20T05:33:19;0.47;;;0.47;;
22907;SDS011;11620;50.050;8.690;2023-07-20T05:36:06;0.50;;;0.50;;
22907;SDS011;11620;50.050;8.690;2023-07-20T05:38:52;0.43;;;0.43;;
22907;SDS011;11620;50.050;8.690;2023-07-20T05:41:39;0.60;;;0.60;;
22907;SDS011;11620;50.050;8.690;2023-07-20T05:44:25;0.50;;;0.50;;
22907;SDS011;11620;50.050;8.690;2023-07-20T05:47:12;0.43;;;0.43;;
22907;SDS011;11620;50.050;8.690;2023-07-20T05:49:58;0.50;;;0.50;;
22907;SDS011;11620;50.050;8.690;2023-07-20T05:52:44;0.60;;;0.60;;
22907;SDS011;11620;50.050;8.690;2023-07-20T05:55:31;0.57;;;0.57;;
22907;SDS011;11620;50.050;8.690;2023-07-20T05:58:17;0.40;;;0.40;;
22907;SDS011;11620;50.050;8.690;2023-07-20T06:01:04;0.50;;;0.50;;
22907;SDS011;11620;50.050;8.690;2023-07-20T06:03:53;0.60;;;0.60;;
22907;SDS011;11620;50.050;8.690;2023-07-20T06:06:40;0.43;;;0.43;;
22907;SDS011;11620;50.050;8.690;2023-07-20T06:09:26;0.60;;;0.60;;
22907;SDS011;11620;50.050;8.690;2023-07-20T06:12:13;0.40;;;0.40;;
22907;SDS011;11620;50.050;8.690;2023-07-20T06:15:03;0.70;;;0.70;;
22907;SDS011;11620;50.050;8.690;2023-07-20T06:17:50;0.50;;;0.50;;
22907;SDS011;11620;50.050;8.690;2023-07-20T06:20:36;0.70;;;0.70;;
22907;SDS011;11620;50.050;8.690;2023-07-20T06:23:23;0.70;;;0.70;;
22907;SDS011;11620;50.050;8.690;2023-07-20T06:26:09;0.75;;;0.75;;
22907;SDS011;11620;50.050;8.690;2023-07-20T06:28:56;0.70;;;0.70;;
22907;SDS011;11620;50.050;8.690;2023-07-20T06:31:42;0.80;;;0.80;;
22907;SDS011;11620;50.050;8.690;2023-07-20T06:34:29;0.80;;;0.80;;
22907;SDS011;11620;50.050;8.690;2023-07-20T06:37:15;0.60;;;0.60;;
22907;SDS011;11620;50.050;8.690;2023-07-20T06:40:02;0.70;;;0.70;;
22907;SDS011;11620;50.050;8.690;2023-07-20T06:42:52;0.60;;;0.60;;
22907;SDS011;11620;50.050;8.690;2023-07-20T06:45:38;0.70;;;0.70;;
22907;SDS011;11620;50.050;8.690;2023-07-20T06:48:24;0.65;;;0.65;;
22907;SDS011;11620;50.050;8.690;2023-07-20T06:51:11;0.60;;;0.60;;
22907;SDS011;11620;50.050;8.690;2023-07-20T06:53:57;0.70;;;0.70;;
22907;SDS011;11620;50.050;8.690;2023-07-20T06:56:43;0.88;;;0.88;;
22907;SDS011;11620;50.050;8.690;2023-07-20T06:59:30;0.60;;;0.60;;
22907;SDS011;11620;50.050;8.690;2023-07-20T07:02:16;0.50;;;0.50;;
22907;SDS011;11620;50.050;8.690;2023-07-20T07:05:02;0.70;;;0.70;;
22907;SDS011;11620;50.050;8.690;2023-07-20T07:07:49;0.60;;;0.60;;
22907;SDS011;11620;50.050;8.690;2023-07-20T07:10:35;0.47;;;0.47;;
22907;SDS011;11620;50.050;8.690;2023-07-20T07:13:22;0.50;;;0.50;;
22907;SDS011;11620;50.050;8.690;2023-07-20T07:16:08;0.40;;;0.40;;
22907;SDS011;11620;50.050;8.690;2023-07-20T07:18:55;0.57;;;0.57;;
22907;SDS011;11620;50.050;8.690;2023-07-20T07:21:41;0.50;;;0.50;;
22907;SDS011;11620;50.050;8.690;2023-07-20T07:24:27;0.50;;;0.50;;
22907;SDS011;11620;50.050;8.690;2023-07-20T07:27:19;0.50;;;0.50;;
22907;SDS011;11620;50.050;8.690;2023-07-20T07:30:05;0.40;;;0.40;;
22907;SDS011;11620;50.050;8.690;2023-07-20T07:32:52;0.50;;;0.50;;
22907;SDS011;11620;50.050;8.690;2023-07-20T07:35:38;0.40;;;0.40;;
22907;SDS011;11620;50.050;8.690;2023-07-20T07:38:25;0.50;;;0.50;;
22907;SDS011;11620;50.050;8.690;2023-07-20T07:41:11;0.40;;;0.40;;
22907;SDS011;11620;50.050;8.690;2023-07-20T07:43:57;0.50;;;0.50;;
22907;SDS011;11620;50.050;8.690;2023-07-20T07:46:44;0.70;;;0.70;;
22907;SDS011;11620;50.050;8.690;2023-07-20T07:49:30;0.57;;;0.57;;
22907;SDS011;11620;50.050;8.690;2023-07-20T07:52:17;0.60;;;0.60;;
22907;SDS011;11620;50.050;8.690;2023-07-20T07:55:03;0.57;;;0.57;;
22907;SDS011;11620;50.050;8.690;2023-07-20T07:57:50;0.55;;;0.55;;
22907;SDS011;11620;50.050;8.690;2023-07-20T08:00:37;0.50;;;0.50;;
22907;SDS011;11620;50.050;8.690;2023-07-20T08:03:23;0.57;;;0.57;;
22907;SDS011;11620;50.050;8.690;2023-07-20T08:06:10;0.60;;;0.60;;
22907;SDS011;11620;50.050;8.690;2023-07-20T08:08:56;0.70;;;0.70;;
22907;SDS011;11620;50.050;8.690;2023-07-20T08:11:42;0.50;;;0.50;;
22907;SDS011;11620;50.050;8.690;2023-07-20T08:14:29;0.40;;;0.40;;
22907;SDS011;11620;50.050;8.690;2023-07-20T08:17:15;0.40;;;0.40;;
22907;SDS011;11620;50.050;8.690;2023-07-20T08:20:01;0.70;;;0.70;;
22907;SDS011;11620;50.050;8.690;2023-07-20T08:22:48;0.80;;;0.80;;
22907;SDS011;11620;50.050;8.690;2023-07-20T08:25:35;0.80;;;0.80;;
22907;SDS011;11620;50.050;8.690;2023-07-20T08:28:23;0.80;;;0.80;;
22907;SDS011;11620;50.050;8.690;2023-07-20T08:31:09;0.50;;;0.50;;
22907;SDS011;11620;50.050;8.690;2023-07-20T08:33:55;0.80;;;0.80;;
22907;SDS011;11620;50.050;8.690;2023-07-20T08:36:42;0.60;;;0.60;;
22907;SDS011;11620;50.050;8.690;2023-07-20T08:39:28;0.40;;;0.40;;
22907;SDS011;11620;50.050;8.690;2023-07-20T08:42:15;0.30;;;0.30;;
22907;SDS011;11620;50.050;8.690;2023-07-20T08:45:03;0.40;;;0.40;;
22907;SDS011;11620;50.050;8.690;2023-07-20T08:47:54;0.70;;;0.70;;
22907;SDS011;11620;50.050;8.690;2023-07-20T08:50:43;0.60;;;0.60;;
22907;SDS011;11620;50.050;8.690;2023-07-20T08:53:31;0.80;;;0.80;;
22907;SDS011;11620;50.050;8.690;2023-07-20T08:56:19;0.63;;;0.63;;
22907;SDS011;11620;50.050;8.690;2023-07-20T08:59:10;0.70;;;0.70;;
22907;SDS011;11620;50.050;8.690;2023-07-20T09:01:59;0.70;;;0.70;;
22907;SDS011;11620;50.050;8.690;2023-07-20T09:04:46;0.32;;;0.32;;
22907;SDS011;11620;50.050;8.690;2023-07-20T09:07:32;0.50;;;0.50;;
22907;SDS011;11620;50.050;8.690;2023-07-20T09:10:21;0.50;;;0.50;;
22907;SDS011;11620;50.050;8.690;2023-07-20T09:13:13;0.45;;;0.45;;
22907;SDS011;11620;50.050;8.690;2023-07-20T09:16:01;0.60;;;0.60;;
22907;SDS011;11620;50.050;8.690;2023-07-20T09:18:49;0.60;;;0.60;;
22907;SDS011;11620;50.050;8.690;2023-07-20T09:21:36;0.50;;;0.50;;
22907;SDS011;11620;50.050;8.690;2023-07-20T09:24:23;0.50;;;0.50;;
22907;SDS011;11620;50.050;8.690;2023-07-20T09:27:09;0.52;;;0.52;;
22907;SDS011;11620;50.050;8.690;2023-07-20T09:29:56;0.52;;;0.52;;
22907;SDS011;11620;50.050;8.690;2023-07-20T09:32:43;0.60;;;0.60;;
22907;SDS011;11620;50.050;8.690;2023-07-20T09:35:33;0.60;;;0.60;;
22907;SDS011;11620;50.050;8.690;2023-07-20T09:38:19;0.50;;;0.50;;
22907;SDS011;11620;50.050;8.690;2023-07-20T09:41:06;0.50;;;0.50;;
22907;SDS011;11620;50.050;8.690;2023-07-20T09:43:52;0.50;;;0.50;;
22907;SDS011;11620;50.050;8.690;2023-07-20T09:46:44;0.40;;;0.40;;
22907;SDS011;11620;50.050;8.690;2023-07-20T09:49:31;0.40;;;0.40;;
22907;SDS011;11620;50.050;8.690;2023-07-20T09:52:18;0.40;;;0.40;;
22907;SDS011;11620;50.050;8.690;2023-07-20T09:55:06;0.30;;;0.30;;
22907;SDS011;11620;50.050;8.690;2023-07-20T09:57:57;0.40;;;0.40;;
22907;SDS011;11620;50.050;8.690;2023-07-20T10:00:45;0.40;;;0.40;;
22907;SDS011;11620;50.050;8.690;2023-07-20T10:03:36;0.40;;;0.40;;
22907;SDS011;11620;50.050;8.690;2023-07-20T10:06:24;0.50;;;0.50;;
22907;SDS011;11620;50.050;8.690;2023-07-20T10:09:12;0.80;;;0.80;;
22907;SDS011;11620;50.050;8.690;2023-07-20T10:12:01;0.70;;;0.70;;
22907;SDS011;11620;50.050;8.690;2023-07-20T10:14:51;0.45;;;0.45;;
22907;SDS011;11620;50.050;8.690;2023-07-20T10:17:46;0.40;;;0.40;;
22907;SDS011;11620;50.050;8.690;2023-07-20T10:20:48;0.40;;;0.40;;
22907;SDS011;11620;50.050;8.690;2023-07-20T10:23:37;0.43;;;0.43;;
22907;SDS011;11620;50.050;8.690;2023-07-20T10:26:25;0.50;;;0.50;;
22907;SDS011;11620;50.050;8.690;2023-07-20T10:29:12;0.43;;;0.43;;
22907;SDS011;11620;50.050;8.690;2023-07-20T10:31:59;0.60;;;0.60;;
22907;SDS011;11620;50.050;8.690;2023-07-20T10:34:52;0.50;;;0.50;;
22907;SDS011;11620;50.050;8.690;2023-07-20T10:40:40;0.60;;;0.60;;
22907;SDS011;11620;50.050;8.690;2023-07-20T10:43:27;0.60;;;0.60;;
22907;SDS011;11620;50.050;8.690;2023-07-20T10:46:13;0.60;;;0.60;;
22907;SDS011;11620;50.050;8.690;2023-07-20T10:49:00;0.38;;;0.38;;
22907;SDS011;11620;50.050;8.690;2023-07-20T10:51:48;0.40;;;0.40;;
22907;SDS011;11620;50.050;8.690;2023-07-20T10:54:47;0.50;;;0.50;;
22907;SDS011;11620;50.050;8.690;2023-07-20T10:57:35;0.60;;;0.60;;
22907;SDS011;11620;50.050;8.690;2023-07-20T11:00:21;0.40;;;0.40;;
22907;SDS011;11620;50.050;8.690;2023-07-20T11:03:10;0.43;;;0.43;;
22907;SDS011;11620;50.050;8.690;2023-07-20T11:09:11;0.40;;;0.40;;
22907;SDS011;11620;50.050;8.690;2023-07-20T11:12:08;0.32;;;0.32;;
22907;SDS011;11620;50.050;8.690;2023-07-20T11:15:02;0.40;;;0.40;;
22907;SDS011;11620;50.050;8.690;2023-07-20T11:17:49;0.40;;;0.40;;
22907;SDS011;11620;50.050;8.690;2023-07-20T11:20:35;0.30;;;0.30;;
22907;SDS011;11620;50.050;8.690;2023-07-20T11:23:22;0.30;;;0.30;;
22907;SDS011;11620;50.050;8.690;2023-07-20T11:26:09;0.30;;;0.30;;
22907;SDS011;11620;50.050;8.690;2023-07-20T11:28:55;0.30;;;0.30;;
22907;SDS011;11620;50.050;8.690;2023-07-20T11:31:42;0.40;;;0.40;;
22907;SDS011;11620;50.050;8.690;2023-07-20T11:34:30;0.40;;;0.40;;
22907;SDS011;11620;50.050;8.690;2023-07-20T11:37:17;0.60;;;0.60;;
22907;SDS011;11620;50.050;8.690;2023-07-20T11:40:06;0.50;;;0.50;;
22907;SDS011;11620;50.050;8.690;2023-07-20T11:42:55;0.60;;;0.60;;
22907;SDS011;11620;50.050;8.690;2023-07-20T11:45:42;0.50;;;0.50;;
22907;SDS011;11620;50.050;8.690;2023-07-20T11:48:29;0.43;;;0.43;;
22907;SDS011;11620;50.050;8.690;2023-07-20T11:51:16;0.45;;;0.45;;
22907;SDS011;11620;50.050;8.690;2023-07-20T11:54:03;0.40;;;0.40;;
22907;SDS011;11620;50.050;8.690;2023-07-20T11:56:54;0.40;;;0.40;;
22907;SDS011;11620;50.050;8.690;2023-07-20T11:59:56;0.40;;;0.40;;
22907;SDS011;11620;50.050;8.690;2023-07-20T12:02:45;0.50;;;0.50;;
22907;SDS011;11620;50.050;8.690;2023-07-20T12:05:31;0.40;;;0.40;;
22907;SDS011;11620;50.050;8.690;2023-07-20T12:08:17;0.40;;;0.40;;
22907;SDS011;11620;50.050;8.690;2023-07-20T12:11:04;0.52;;;0.52;;
22907;SDS011;11620;50.050;8.690;2023-07-20T12:13:50;0.60;;;0.60;;
22907;SDS011;11620;50.050;8.690;2023-07-20T12:16:36;0.60;;;0.60;;
22907;SDS011;11620;50.050;8.690;2023-07-20T12:19:24;0.50;;;0.50;;
22907;SDS011;11620;50.050;8.690;2023-07-20T12:22:11;0.50;;;0.50;;
22907;SDS011;11620;50.050;8.690;2023-07-20T12:24:57;0.50;;;0.50;;
22907;SDS011;11620;50.050;8.690;2023-07-20T12:27:44;0.40;;;0.40;;
22907;SDS011;11620;50.050;8.690;2023-07-20T12:30:30;0.30;;;0.30;;
22907;SDS011;11620;50.050;8.690;2023-07-20T12:33:17;0.30;;;0.30;;
22907;SDS011;11620;50.050;8.690;2023-07-20T12:36:03;0.40;;;0.40;;
22907;SDS011;11620;50.050;8.690;2023-07-20T12:38:50;0.40;;;0.40;;
22907;SDS011;11620;50.050;8.690;2023-07-20T12:41:37;0.38;;;0.38;;
22907;SDS011;11620;50.050;8.690;2023-07-20T12:44:23;0.40;;;0.40;;
22907;SDS011;11620;50.050;8.690;2023-07-20T12:47:09;0.40;;;0.40;;
22907;SDS011;11620;50.050;8.690;2023-07-20T12:49:56;0.40;;;0.40;;
22907;SDS011;11620;50.050;8.690;2023-07-20T12:52:42;0.40;;;0.40;;
22907;SDS011;11620;50.050;8.690;2023-07-20T12:55:28;0.40;;;0.40;;
22907;SDS011;11620;50.050;8.690;2023-07-20T12:58:15;0.40;;;0.40;;
22907;SDS011;11620;50.050;8.690;2023-07-20T13:01:01;0.40;;;0.40;;
22907;SDS011;11620;50.050;8.690;2023-07-20T13:03:48;0.50;;;0.50;;
22907;SDS011;11620;50.050;8.690;2023-07-20T13:06:34;0.40;;;0.40;;
22907;SDS011;11620;50.050;8.690;2023-07-20T13:09:20;0.30;;;0.30;;
22907;SDS011;11620;50.050;8.690;2023-07-20T13:12:07;0.40;;;0.40;;
22907;SDS011;11620;50.050;8.690;2023-07-20T13:14:54;0.35;;;0.35;;
22907;SDS011;11620;50.050;8.690;2023-07-20T13:17:41;0.50;;;0.50;;
22907;SDS011;11620;50.050;8.690;2023-07-20T13:20:27;0.40;;;0.40;;
22907;SDS011;11620;50.050;8.690;2023-07-20T13:23:15;0.40;;;0.40;;
22907;SDS011;11620;50.050;8.690;2023-07-20T13:26:01;0.50;;;0.50;;
22907;SDS011;11620;50.050;8.690;2023-07-20T13:28:47;0.40;;;0.40;;
22907;SDS011;11620;50.050;8.690;2023-07-20T13:31:34;0.40;;;0.40;;
22907;SDS011;11620;50.050;8.690;2023-07-20T13:34:20;0.50;;;0.50;;
22907;SDS011;11620;50.050;8.690;2023-07-20T13:37:06;0.30;;;0.30;;
22907;SDS011;11620;50.050;8.690;2023-07-20T13:39:54;0.43;;;0.43;;
22907;SDS011;11620;50.050;8.690;2023-07-20T13:42:41;0.50;;;0.50;;
22907;SDS011;11620;50.050;8.690;2023-07-20T13:45:36;0.50;;;0.50;;
22907;SDS011;11620;50.050;8.690;2023-07-20T13:48:22;0.50;;;0.50;;
22907;SDS011;11620;50.050;8.690;2023-07-20T13:51:09;0.40;;;0.40;;
22907;SDS011;11620;50.050;8.690;2023-07-20T13:53:55;0.50;;;0.50;;
22907;SDS011;11620;50.050;8.690;2023-07-20T13:56:42;0.40;;;0.40;;
22907;SDS011;11620;50.050;8.690;2023-07-20T13:59:29;0.57;;;0.57;;
22907;SDS011;11620;50.050;8.690;2023-07-20T14:02:17;0.50;;;0.50;;
22907;SDS011;11620;50.050;8.690;2023-07-20T14:05:03;0.40;;;0.40;;
22907;SDS011;11620;50.050;8.690;2023-07-20T14:07:50;0.50;;;0.50;;
22907;SDS011;11620;50.050;8.690;2023-07-20T14:10:37;0.50;;;0.50;;
22907;SDS011;11620;50.050;8.690;2023-07-20T14:13:23;0.30;;;0.30;;
22907;SDS011;11620;50.050;8.690;2023-07-20T14:16:10;0.50;;;0.50;;
22907;SDS011;11620;50.050;8.690;2023-07-20T14:18:56;0.40;;;0.40;;
22907;SDS011;11620;50.050;8.690;2023-07-20T14:21:43;0.30;;;0.30;;
22907;SDS011;11620;50.050;8.690;2023-07-20T14:24:30;0.30;;;0.30;;
22907;SDS011;11620;50.050;8.690;2023-07-20T14:27:16;0.40;;;0.40;;
22907;SDS011;11620;50.050;8.690;2023-07-20T14:30:03;0.30;;;0.30;;
22907;SDS011;11620;50.050;8.690;2023-07-20T14:32:50;0.35;;;0.35;;
22907;SDS011;11620;50.050;8.690;2023-07-20T14:35:36;0.30;;;0.30;;
22907;SDS011;11620;50.050;8.690;2023-07-20T14:38:23;0.32;;;0.32;;
22907;SDS011;11620;50.050;8.690;2023-07-20T14:41:09;0.30;;;0.30;;
22907;SDS011;11620;50.050;8.690;2023-07-20T14:43:55;0.40;;;0.40;;
22907;SDS011;11620;50.050;8.690;2023-07-20T14:46:42;0.40;;;0.40;;
22907;SDS011;11620;50.050;8.690;2023-07-20T14:49:28;0.40;;;0.40;;
22907;SDS011;11620;50.050;8.690;2023-07-20T14:52:14;0.47;;;0.47;;
22907;SDS011;11620;50.050;8.690;2023-07-20T14:55:01;0.40;;;0.40;;
22907;SDS011;11620;50.050;8.690;2023-07-20T14:57:47;0.35;;;0.35;;
22907;SDS011;11620;50.050;8.690;2023-07-20T15:00:34;0.40;;;0.40;;
22907;SDS011;11620;50.050;8.690;2023-07-20T15:03:20;0.22;;;0.22;;
22907;SDS011;11620;50.050;8.690;2023-07-20T15:06:10;0.30;;;0.30;;
22907;SDS011;11620;50.050;8.690;2023-07-20T15:08:57;0.40;;;0.40;;
22907;SDS011;11620;50.050;8.690;2023-07-20T15:11:43;0.30;;;0.30;;
22907;SDS011;11620;50.050;8.690;2023-07-20T15:14:29;0.30;;;0.30;;
22907;SDS011;11620;50.050;8.690;2023-07-20T15:17:16;0.30;;;0.30;;
22907;SDS011;11620;50.050;8.690;2023-07-20T15:20:03;0.40;;;0.40;;
22907;SDS011;11620;50.050;8.690;2023-07-20T15:22:50;0.40;;;0.40;;
22907;SDS011;11620;50.050;8.690;2023-07-20T15:25:36;0.30;;;0.30;;
22907;SDS011;11620;50.050;8.690;2023-07-20T15:28:23;0.30;;;0.30;;
22907;SDS011;11620;50.050;8.690;2023-07-20T15:31:09;0.30;;;0.30;;
22907;SDS011;11620;50.050;8.690;2023-07-20T15:33:55;0.32;;;0.32;;
22907;SDS011;11620;50.050;8.690;2023-07-20T15:36:42;0.40;;;0.40;;
22907;SDS011;11620;50.050;8.690;2023-07-20T15:39:28;0.38;;;0.38;;
22907;SDS011;11620;50.050;8.690;2023-07-20T15:42:15;0.35;;;0.35;;
22907;SDS011;11620;50.050;8.690;2023-07-20T15:45:01;0.60;;;0.60;;
22907;SDS011;11620;50.050;8.690;2023-07-20T15:47:48;0.40;;;0.40;;
22907;SDS011;11620;50.050;8.690;2023-07-20T15:50:34;0.40;;;0.40;;
22907;SDS011;11620;50.050;8.690;2023-07-20T15:53:20;0.30;;;0.30;;
22907;SDS011;11620;50.050;8.690;2023-07-20T15:56:07;0.35;;;0.35;;
22907;SDS011;11620;50.050;8.690;2023-07-20T15:58:53;0.30;;;0.30;;
22907;SDS011;11620;50.050;8.690;2023-07-20T16:01:39;0.30;;;0.30;;
22907;SDS011;11620;50.050;8.690;2023-07-20T16:04:27;0.38;;;0.38;;
22907;SDS011;11620;50.050;8.690;2023-07-20T16:07:14;0.40;;;0.40;;
22907;SDS011;11620;50.050;8.690;2023-07-20T16:10:00;0.30;;;0.30;;
22907;SDS011;11620;50.050;8.690;2023-07-20T16:12:48;0.40;;;0.40;;
22907;SDS011;11620;50.050;8.690;2023-07-20T16:15:34;0.30;;;0.30;;
22907;SDS011;11620;50.050;8.690;2023-07-20T16:18:21;0.50;;;0.50;;
22907;SDS011;11620;50.050;8.690;2023-07-20T16:21:07;0.40;;;0.40;;
22907;SDS011;11620;50.050;8.690;2023-07-20T16:23:54;0.35;;;0.35;;
22907;SDS011;11620;50.050;8.690;2023-07-20T16:26:40;0.40;;;0.40;;
22907;SDS011;11620;50.050;8.690;2023-07-20T16:29:30;0.40;;;0.40;;
22907;SDS011;11620;50.050;8.690;2023-07-20T16:32:16;0.40;;;0.40;;
22907;SDS011;11620;50.050;8.690;2023-07-20T16:35:03;0.40;;;0.40;;
22907;SDS011;11620;50.050;8.690;2023-07-20T16:37:49;0.30;;;0.30;;
22907;SDS011;11620;50.050;8.690;2023-07-20T16:40:36;0.40;;;0.40;;
22907;SDS011;11620;50.050;8.690;2023-07-20T16:43:23;0.30;;;0.30;;
22907;SDS011;11620;50.050;8.690;2023-07-20T16:46:09;0.35;;;0.35;;
22907;SDS011;11620;50.050;8.690;2023-07-20T16:48:56;0.40;;;0.40;;
22907;SDS011;11620;50.050;8.690;2023-07-20T16:51:42;0.30;;;0.30;;
22907;SDS011;11620;50.050;8.690;2023-07-20T16:54:29;0.30;;;0.30;;
22907;SDS011;11620;50.050;8.690;2023-07-20T16:57:15;0.30;;;0.30;;
22907;SDS011;11620;50.050;8.690;2023-07-20T17:00:01;0.50;;;0.50;;
22907;SDS011;11620;50.050;8.690;2023-07-20T17:02:52;0.30;;;0.30;;